createdAt,value
2018-03-16T00:00:58.185Z,39.00
2018-03-16T00:01:58.146Z,36.80
2018-03-16T00:02:58.145Z,38.40
2018-03-16T00:03:58.182Z,40.30
2018-03-16T00:04:58.192Z,39.20
2018-03-16T00:05:58.143Z,38.50
2018-03-16T00:06:58.205Z,40.60
2018-03-16T00:07:58.183Z,40.30
2018-03-16T00:08:58.169Z,41.70
2018-03-16T00:09:58.162Z,40.40
2018-03-16T00:10:58.179Z,37.80
2018-03-16T00:11:58.178Z,40.10
2018-03-16T00:12:58.171Z,43.50
2018-03-16T00:13:58.171Z,42.50
2018-03-16T00:14:58.161Z,43.20
2018-03-16T00:15:58.162Z,41.10
2018-03-16T00:16:58.139Z,41.80
2018-03-16T00:17:58.137Z,43.30
2018-03-16T00:18:58.147Z,41.10
2018-03-16T00:19:58.184Z,45.10
2018-03-16T00:20:58.242Z,43.30
2018-03-16T00:21:58.127Z,42.90
2018-03-16T00:22:59.070Z,44.40
2018-03-16T00:23:58.126Z,45.40
2018-03-16T00:24:58.390Z,43.30
2018-03-16T00:25:58.156Z,44.00
2018-03-16T00:26:58.147Z,45.20
2018-03-16T00:27:58.144Z,45.80
2018-03-16T00:28:58.187Z,45.70
2018-03-16T00:29:58.120Z,45.40
2018-03-16T00:30:58.178Z,44.70
2018-03-16T00:31:58.116Z,46.50
2018-03-16T00:32:58.129Z,43.40
2018-03-16T00:33:58.143Z,45.10
2018-03-16T00:34:58.210Z,47.00
2018-03-16T00:35:58.149Z,45.70
2018-03-16T00:36:58.120Z,43.00
2018-03-16T00:37:58.123Z,44.50
2018-03-16T00:38:58.136Z,44.40
2018-03-16T00:39:58.120Z,47.20
2018-03-16T00:40:58.146Z,44.00
2018-03-16T00:41:58.113Z,42.80
2018-03-16T00:42:58.132Z,45.30
2018-03-16T00:43:58.145Z,45.30
2018-03-16T00:44:58.150Z,46.30
2018-03-16T00:45:58.118Z,44.10
2018-03-16T00:46:58.145Z,45.30
2018-03-16T00:47:58.138Z,47.60
2018-03-16T00:48:58.105Z,47.70
2018-03-16T00:49:58.118Z,45.80
2018-03-16T00:50:58.118Z,46.40
2018-03-16T00:51:58.100Z,47.80
2018-03-16T00:52:58.094Z,47.90
2018-03-16T00:53:58.119Z,47.80
2018-03-16T00:54:58.091Z,47.80
2018-03-16T00:55:58.110Z,43.90
2018-03-16T00:56:58.093Z,45.80
2018-03-16T00:57:58.108Z,44.30
2018-03-16T00:58:58.103Z,41.60
2018-03-16T00:59:58.110Z,45.10
2018-03-16T01:00:58.089Z,45.40
2018-03-16T01:01:58.137Z,47.20
2018-03-16T01:02:58.098Z,46.80
2018-03-16T01:03:58.095Z,46.50
2018-03-16T01:04:58.096Z,46.20
2018-03-16T01:05:58.094Z,46.10
2018-03-16T01:06:58.082Z,43.80
2018-03-16T01:07:58.130Z,45.80
2018-03-16T01:08:58.080Z,46.30
2018-03-16T01:09:58.107Z,46.50
2018-03-16T01:10:58.105Z,47.30
2018-03-16T01:11:58.146Z,43.30
2018-03-16T01:12:58.108Z,46.80
2018-03-16T01:13:58.101Z,44.60
2018-03-16T01:14:58.075Z,45.60
2018-03-16T01:15:58.071Z,44.60
2018-03-16T01:16:58.076Z,45.10
2018-03-16T01:17:58.120Z,47.90
2018-03-16T01:18:58.142Z,47.60
2018-03-16T01:19:58.100Z,48.30
2018-03-16T01:20:58.096Z,49.00
2018-03-16T01:21:58.090Z,47.10
2018-03-16T01:22:58.095Z,49.70
2018-03-16T01:23:58.078Z,49.10
2018-03-16T01:24:58.098Z,46.70
2018-03-16T01:25:58.069Z,47.70
2018-03-16T01:26:58.092Z,44.50
2018-03-16T01:27:58.078Z,47.80
2018-03-16T01:28:58.068Z,47.20
2018-03-16T01:29:58.086Z,46.70
2018-03-16T01:30:58.078Z,45.10
2018-03-16T01:31:58.143Z,49.10
2018-03-16T01:32:58.065Z,49.20
2018-03-16T01:33:58.063Z,47.60
2018-03-16T01:34:58.082Z,46.50
2018-03-16T01:35:58.055Z,47.00
2018-03-16T01:36:58.125Z,46.10
2018-03-16T01:37:58.055Z,46.10
2018-03-16T01:38:58.048Z,49.40
2018-03-16T01:39:58.060Z,49.40
2018-03-16T01:40:58.051Z,50.50
2018-03-16T01:41:58.052Z,48.90
2018-03-16T01:42:58.111Z,48.40
2018-03-16T01:43:58.081Z,49.40
2018-03-16T01:44:58.060Z,49.80
2018-03-16T01:45:58.074Z,49.20
2018-03-16T01:46:58.066Z,47.60
2018-03-16T01:47:58.061Z,49.20
2018-03-16T01:48:58.077Z,51.60
2018-03-16T01:49:58.093Z,48.60
2018-03-16T01:50:58.059Z,47.60
2018-03-16T01:51:58.038Z,47.80
2018-03-16T01:52:58.100Z,49.20
2018-03-16T01:53:58.032Z,49.40
2018-03-16T01:54:58.067Z,51.00
2018-03-16T01:55:58.069Z,49.50
2018-03-16T01:56:58.034Z,49.20
2018-03-16T01:57:58.044Z,51.10
2018-03-16T01:58:58.061Z,48.00
2018-03-16T01:59:58.040Z,49.40
2018-03-16T02:00:58.051Z,50.90
2018-03-16T02:01:58.050Z,48.00
2018-03-16T02:02:58.089Z,50.50
2018-03-16T02:03:58.021Z,52.70
2018-03-16T02:04:58.032Z,52.60
2018-03-16T02:05:58.031Z,51.20
2018-03-16T02:06:58.021Z,50.20
2018-03-16T02:07:58.030Z,49.80
2018-03-16T02:08:58.026Z,51.40
2018-03-16T02:09:58.042Z,51.40
2018-03-16T02:10:58.056Z,50.70
2018-03-16T02:11:58.014Z,50.70
2018-03-16T02:12:58.082Z,50.50
2018-03-16T02:13:58.027Z,51.60
2018-03-16T02:14:58.025Z,52.30
2018-03-16T02:15:58.019Z,52.00
2018-03-16T02:16:58.014Z,52.50
2018-03-16T02:17:58.014Z,51.90
2018-03-16T02:18:58.021Z,50.90
2018-03-16T02:19:58.032Z,49.10
2018-03-16T02:20:58.008Z,51.90
2018-03-16T02:21:58.012Z,52.30
2018-03-16T02:22:58.101Z,49.20
2018-03-16T02:23:58.005Z,51.20
2018-03-16T02:24:58.024Z,51.20
2018-03-16T02:25:57.995Z,48.20
2018-03-16T02:26:58.000Z,52.40
2018-03-16T02:27:58.028Z,52.80
2018-03-16T02:28:58.007Z,49.00
2018-03-16T02:29:57.996Z,46.00
2018-03-16T02:30:58.033Z,52.10
2018-03-16T02:31:58.001Z,54.10
2018-03-16T02:32:58.593Z,55.70
2018-03-16T02:33:57.994Z,49.90
2018-03-16T02:34:57.985Z,54.90
2018-03-16T02:35:58.001Z,49.80
2018-03-16T02:36:58.035Z,52.60
2018-03-16T02:37:58.000Z,51.40
2018-03-16T02:38:58.004Z,50.90
2018-03-16T02:39:57.977Z,54.90
2018-03-16T02:40:57.994Z,51.80
2018-03-16T02:41:57.982Z,56.60
2018-03-16T02:42:57.988Z,52.90
2018-03-16T02:43:57.980Z,52.40
2018-03-16T02:44:57.979Z,53.60
2018-03-16T02:45:57.966Z,53.50
2018-03-16T02:46:58.017Z,53.90
2018-03-16T02:47:57.987Z,54.80
2018-03-16T02:48:57.990Z,54.90
2018-03-16T02:49:58.006Z,54.30
2018-03-16T02:50:57.982Z,55.30
2018-03-16T02:51:58.002Z,49.50
2018-03-16T02:52:57.975Z,56.60
2018-03-16T02:53:57.973Z,48.80
2018-03-16T02:54:57.952Z,55.10
2018-03-16T02:55:57.958Z,54.20
2018-03-16T02:56:57.976Z,56.90
2018-03-16T02:57:57.976Z,54.00
2018-03-16T02:58:57.970Z,50.50
2018-03-16T02:59:57.991Z,52.80
2018-03-16T03:00:57.968Z,53.70
2018-03-16T03:01:57.956Z,56.30
2018-03-16T03:02:57.981Z,54.40
2018-03-16T03:03:58.112Z,54.50
2018-03-16T03:04:57.947Z,54.10
2018-03-16T03:05:57.942Z,54.90
2018-03-16T03:06:57.964Z,56.30
2018-03-16T03:07:57.941Z,57.60
2018-03-16T03:08:57.957Z,55.50
2018-03-16T03:09:57.944Z,56.30
2018-03-16T03:10:57.960Z,56.00
2018-03-16T03:11:57.946Z,57.00
2018-03-16T03:12:57.954Z,55.00
2018-03-16T03:13:57.940Z,56.90
2018-03-16T03:14:57.961Z,55.50
2018-03-16T03:15:57.962Z,56.90
2018-03-16T03:16:57.936Z,59.00
2018-03-16T03:17:57.952Z,57.40
2018-03-16T03:18:57.943Z,56.60
2018-03-16T03:19:57.937Z,56.60
2018-03-16T03:20:57.940Z,59.20
2018-03-16T03:21:57.939Z,54.90
2018-03-16T03:22:57.944Z,57.30
2018-03-16T03:23:57.933Z,59.40
2018-03-16T03:24:57.936Z,55.70
2018-03-16T03:25:57.918Z,56.40
2018-03-16T03:26:57.912Z,53.50
2018-03-16T03:27:57.917Z,54.90
2018-03-16T03:28:57.942Z,58.50
2018-03-16T03:29:57.927Z,55.90
2018-03-16T03:30:57.917Z,56.60
2018-03-16T03:31:57.919Z,56.10
2018-03-16T03:32:57.914Z,54.60
2018-03-16T03:33:57.906Z,60.20
2018-03-16T03:34:57.916Z,57.00
2018-03-16T03:35:57.920Z,59.00
2018-03-16T03:36:57.906Z,58.30
2018-03-16T03:37:57.916Z,59.50
2018-03-16T03:38:57.902Z,59.60
2018-03-16T03:39:57.903Z,59.70
2018-03-16T03:40:57.911Z,58.00
2018-03-16T03:41:57.903Z,55.40
2018-03-16T03:42:57.896Z,59.10
2018-03-16T03:43:57.906Z,60.10
2018-03-16T03:44:57.892Z,59.30
2018-03-16T03:45:57.891Z,60.70
2018-03-16T03:46:57.918Z,61.30
2018-03-16T03:47:57.890Z,61.20
2018-03-16T03:48:57.955Z,56.20
2018-03-16T03:49:57.915Z,58.80
2018-03-16T03:50:57.933Z,59.00
2018-03-16T03:51:57.908Z,60.60
2018-03-16T03:52:57.923Z,59.20
2018-03-16T03:53:57.921Z,59.10
2018-03-16T03:54:57.897Z,59.10
2018-03-16T03:55:57.880Z,62.30
2018-03-16T03:56:57.882Z,59.90
2018-03-16T03:57:57.901Z,59.00
2018-03-16T03:58:57.884Z,57.60
2018-03-16T03:59:57.896Z,61.00
2018-03-16T04:00:57.884Z,64.10
2018-03-16T04:01:57.882Z,62.30
2018-03-16T04:02:57.876Z,62.10
2018-03-16T04:03:57.880Z,60.00
2018-03-16T04:04:58.606Z,58.90
2018-03-16T04:05:57.880Z,63.90
2018-03-16T04:06:57.892Z,64.90
2018-03-16T04:07:57.878Z,62.10
2018-03-16T04:08:57.868Z,63.80
2018-03-16T04:09:57.875Z,61.00
2018-03-16T04:10:57.859Z,64.10
2018-03-16T04:11:57.862Z,61.80
2018-03-16T04:12:57.876Z,65.50
2018-03-16T04:13:57.878Z,65.10
2018-03-16T04:14:57.867Z,61.20
2018-03-16T04:15:57.878Z,64.60
2018-03-16T04:16:57.879Z,65.60
2018-03-16T04:17:57.895Z,62.30
2018-03-16T04:18:57.845Z,62.80
2018-03-16T04:19:57.904Z,64.90
2018-03-16T04:20:58.613Z,64.20
2018-03-16T04:21:57.916Z,67.40
2018-03-16T04:22:57.848Z,65.70
2018-03-16T04:23:57.894Z,65.60
2018-03-16T04:24:57.835Z,67.20
2018-03-16T04:25:57.880Z,65.40
2018-03-16T04:26:57.840Z,66.00
2018-03-16T04:27:57.875Z,63.60
2018-03-16T04:28:57.834Z,65.40
2018-03-16T04:29:57.845Z,65.10
2018-03-16T04:30:57.863Z,66.70
2018-03-16T04:31:57.850Z,67.70
2018-03-16T04:32:57.836Z,64.10
2018-03-16T04:33:58.614Z,65.80
2018-03-16T04:34:57.855Z,65.40
2018-03-16T04:35:57.845Z,68.60
2018-03-16T04:36:57.833Z,68.40
2018-03-16T04:37:57.823Z,67.20
2018-03-16T04:38:57.835Z,68.20
2018-03-16T04:39:57.812Z,69.70
2018-03-16T04:40:57.843Z,68.40
2018-03-16T04:41:57.855Z,68.80
2018-03-16T04:42:57.824Z,70.30
2018-03-16T04:43:57.826Z,68.60
2018-03-16T04:44:57.810Z,68.40
2018-03-16T04:45:57.804Z,67.50
2018-03-16T04:46:57.844Z,65.80
2018-03-16T04:47:57.812Z,65.20
2018-03-16T04:48:57.839Z,68.10
2018-03-16T04:49:57.816Z,67.70
2018-03-16T04:50:57.831Z,67.20
2018-03-16T04:51:57.824Z,71.50
2018-03-16T04:52:57.799Z,63.00
2018-03-16T04:53:57.819Z,67.30
2018-03-16T04:54:57.823Z,68.60
2018-03-16T04:55:57.816Z,67.70
2018-03-16T04:56:57.786Z,70.50
2018-03-16T04:57:57.785Z,68.30
2018-03-16T04:58:57.812Z,68.50
2018-03-16T04:59:57.813Z,67.40
2018-03-16T05:00:57.794Z,73.20
2018-03-16T05:01:57.798Z,70.50
2018-03-16T05:02:57.804Z,69.40
2018-03-16T05:03:57.788Z,68.00
2018-03-16T05:04:57.776Z,68.50
2018-03-16T05:05:57.803Z,71.90
2018-03-16T05:06:57.789Z,71.50
2018-03-16T05:07:57.783Z,72.30
2018-03-16T05:08:57.795Z,67.60
2018-03-16T05:09:57.768Z,69.00
2018-03-16T05:10:57.790Z,72.10
2018-03-16T05:11:57.782Z,69.20
2018-03-16T05:12:57.797Z,69.80
2018-03-16T05:13:57.768Z,67.90
2018-03-16T05:14:57.794Z,66.50
2018-03-16T05:15:57.832Z,68.80
2018-03-16T05:16:57.795Z,67.30
2018-03-16T05:17:57.760Z,70.50
2018-03-16T05:18:57.759Z,69.10
2018-03-16T05:19:57.773Z,67.80
2018-03-16T05:20:57.814Z,72.00
2018-03-16T05:21:57.771Z,72.10
2018-03-16T05:22:57.782Z,71.10
2018-03-16T05:23:57.766Z,64.20
2018-03-16T05:24:57.779Z,67.30
2018-03-16T05:25:57.789Z,67.70
2018-03-16T05:26:57.799Z,63.10
2018-03-16T05:27:57.848Z,71.10
2018-03-16T05:28:57.811Z,69.70
2018-03-16T05:29:57.763Z,71.00
2018-03-16T05:30:57.739Z,66.90
2018-03-16T05:31:57.754Z,69.10
2018-03-16T05:32:57.773Z,66.00
2018-03-16T05:33:57.730Z,70.50
2018-03-16T05:34:57.739Z,68.40
2018-03-16T05:35:57.761Z,69.80
2018-03-16T05:36:57.758Z,69.20
2018-03-16T05:37:57.764Z,64.00
2018-03-16T05:38:57.720Z,69.70
2018-03-16T05:39:57.728Z,71.50
2018-03-16T05:40:57.723Z,69.30
2018-03-16T05:41:57.743Z,66.00
2018-03-16T05:42:57.744Z,69.50
2018-03-16T05:43:57.739Z,69.20
2018-03-16T05:44:57.753Z,72.90
2018-03-16T05:45:57.783Z,69.90
2018-03-16T05:46:57.730Z,70.60
2018-03-16T05:47:57.757Z,69.90
2018-03-16T05:48:57.734Z,70.90
2018-03-16T05:49:57.714Z,68.90
2018-03-16T05:50:57.749Z,68.90
2018-03-16T05:51:57.724Z,69.90
2018-03-16T05:52:57.706Z,71.60
2018-03-16T05:53:57.723Z,67.60
2018-03-16T05:54:57.733Z,67.40
2018-03-16T05:55:57.724Z,67.60
2018-03-16T05:56:57.701Z,64.50
2018-03-16T05:57:57.691Z,66.10
2018-03-16T05:58:57.798Z,71.00
2018-03-16T05:59:57.712Z,67.90
2018-03-16T06:00:57.815Z,68.30
2018-03-16T06:01:57.716Z,68.80
2018-03-16T06:02:57.702Z,68.50
2018-03-16T06:03:57.690Z,66.00
2018-03-16T06:04:57.683Z,70.30
2018-03-16T06:05:57.679Z,69.70
2018-03-16T06:06:57.701Z,65.70
2018-03-16T06:07:57.683Z,67.90
2018-03-16T06:08:57.686Z,69.60
2018-03-16T06:09:57.674Z,69.20
2018-03-16T06:10:57.675Z,69.00
2018-03-16T06:11:57.690Z,65.20
2018-03-16T06:12:57.668Z,66.30
2018-03-16T06:13:57.695Z,64.60
2018-03-16T06:14:57.659Z,66.80
2018-03-16T06:15:57.669Z,66.90
2018-03-16T06:16:57.655Z,69.80
2018-03-16T06:17:57.665Z,70.70
2018-03-16T06:18:57.724Z,67.40
2018-03-16T06:19:57.670Z,66.90
2018-03-16T06:20:57.666Z,66.00
2018-03-16T06:21:57.683Z,66.80
2018-03-16T06:22:57.657Z,67.10
2018-03-16T06:23:57.647Z,66.30
2018-03-16T06:24:57.649Z,68.40
2018-03-16T06:25:57.656Z,68.30
2018-03-16T06:26:57.669Z,69.10
2018-03-16T06:27:57.648Z,68.30
2018-03-16T06:28:57.729Z,68.40
2018-03-16T06:29:57.642Z,67.20
2018-03-16T06:30:57.650Z,67.00
2018-03-16T06:31:57.793Z,66.40
2018-03-16T06:32:57.669Z,65.60
2018-03-16T06:33:57.640Z,65.80
2018-03-16T06:34:57.660Z,70.30
2018-03-16T06:35:57.651Z,74.90
2018-03-16T06:36:57.662Z,71.10
2018-03-16T06:37:57.639Z,69.90
2018-03-16T06:38:57.648Z,69.90
2018-03-16T06:39:57.660Z,68.00
2018-03-16T06:40:57.611Z,73.00
2018-03-16T06:41:57.632Z,68.90
2018-03-16T06:42:57.718Z,68.80
2018-03-16T06:43:57.628Z,72.20
2018-03-16T06:44:57.711Z,70.00
2018-03-16T06:45:57.636Z,67.30
2018-03-16T06:46:57.650Z,68.20
2018-03-16T06:47:57.624Z,69.80
2018-03-16T06:48:57.650Z,67.90
2018-03-16T06:49:57.658Z,72.20
2018-03-16T06:50:57.620Z,72.40
2018-03-16T06:51:57.717Z,72.70
2018-03-16T06:52:57.608Z,66.50
2018-03-16T06:53:57.805Z,70.30
2018-03-16T06:54:57.598Z,66.70
2018-03-16T06:55:57.632Z,67.00
2018-03-16T06:56:57.598Z,70.60
2018-03-16T06:57:57.618Z,68.40
2018-03-16T06:58:57.593Z,67.10
2018-03-16T06:59:57.608Z,63.80
2018-03-16T07:00:57.634Z,59.30
2018-03-16T07:01:57.638Z,66.20
2018-03-16T07:02:57.579Z,65.40
2018-03-16T07:03:57.638Z,68.90
2018-03-16T07:04:57.581Z,68.50
2018-03-16T07:05:57.588Z,68.20
2018-03-16T07:06:57.581Z,65.00
2018-03-16T07:07:57.594Z,67.50
2018-03-16T07:08:57.611Z,69.10
2018-03-16T07:09:57.606Z,64.80
2018-03-16T07:10:57.605Z,67.90
2018-03-16T07:11:57.601Z,65.80
2018-03-16T07:12:58.333Z,63.70
2018-03-16T07:13:57.637Z,64.20
2018-03-16T07:14:57.560Z,60.10
2018-03-16T07:15:57.607Z,59.20
2018-03-16T07:16:57.557Z,62.00
2018-03-16T07:17:57.571Z,58.50
2018-03-16T07:18:57.585Z,64.60
2018-03-16T07:19:57.554Z,51.40
2018-03-16T07:20:57.588Z,66.10
2018-03-16T07:21:57.580Z,66.90
2018-03-16T07:22:57.588Z,64.50
2018-03-16T07:23:57.583Z,65.70
2018-03-16T07:24:57.776Z,68.30
2018-03-16T07:25:58.149Z,66.30
2018-03-16T07:26:57.642Z,69.10
2018-03-16T07:27:57.619Z,64.50
2018-03-16T07:28:57.735Z,60.40
2018-03-16T07:29:57.580Z,64.10
2018-03-16T07:30:57.882Z,65.60
2018-03-16T07:32:15.358Z,66.60
2018-03-16T07:33:33.356Z,64.00
2018-03-16T07:34:05.398Z,66.20
2018-03-16T07:34:57.656Z,62.80
2018-03-16T07:35:57.718Z,65.20
2018-03-16T07:36:57.618Z,64.30
2018-03-16T07:37:57.569Z,68.40
2018-03-16T07:38:57.612Z,68.60
2018-03-16T07:39:57.663Z,64.40
2018-03-16T07:40:57.612Z,68.80
2018-03-16T07:41:57.621Z,59.00
2018-03-16T07:42:57.560Z,62.60
2018-03-16T07:43:57.685Z,64.20
2018-03-16T07:44:57.511Z,61.80
2018-03-16T07:45:57.531Z,69.20
2018-03-16T07:46:57.716Z,66.70
2018-03-16T07:47:57.585Z,56.40
2018-03-16T07:48:57.542Z,66.60
2018-03-16T07:49:57.543Z,66.00
2018-03-16T07:50:57.499Z,64.70
2018-03-16T07:51:57.632Z,65.30
2018-03-16T07:52:57.558Z,59.20
2018-03-16T07:53:57.676Z,56.70
2018-03-16T07:54:57.562Z,63.70
2018-03-16T07:55:57.542Z,62.20
2018-03-16T07:56:57.640Z,63.10
2018-03-16T07:57:57.565Z,62.60
2018-03-16T07:58:57.490Z,61.30
2018-03-16T07:59:57.665Z,57.70
2018-03-16T08:00:57.498Z,59.30
2018-03-16T08:01:57.619Z,62.10
2018-03-16T08:02:57.703Z,63.00
2018-03-16T08:03:57.525Z,59.30
2018-03-16T08:04:57.644Z,60.80
2018-03-16T08:07:34.462Z,63.80
2018-03-16T08:07:57.612Z,65.70
2018-03-16T08:08:57.506Z,66.70
2018-03-16T08:09:59.487Z,68.50
2018-03-16T08:11:01.931Z,69.00
2018-03-16T08:11:58.077Z,70.00
2018-03-16T08:12:57.513Z,67.20
2018-03-16T08:13:57.589Z,65.40
2018-03-16T08:14:59.404Z,66.40
2018-03-16T08:15:58.087Z,68.10
2018-03-16T08:16:57.495Z,63.20
2018-03-16T08:17:58.334Z,55.10
2018-03-16T08:18:59.474Z,57.60
2018-03-16T08:19:58.653Z,55.30
2018-03-16T08:20:57.710Z,51.80
2018-03-16T08:21:57.645Z,51.60
2018-03-16T08:22:57.517Z,51.90
2018-03-16T08:23:57.569Z,52.50
2018-03-16T08:24:57.751Z,51.10
2018-03-16T08:25:57.702Z,51.40
2018-03-16T08:26:58.110Z,52.10
2018-03-16T08:27:57.509Z,48.60
2018-03-16T08:28:57.578Z,50.80
2018-03-16T08:29:58.555Z,49.70
2018-03-16T08:30:57.522Z,48.70
2018-03-16T08:31:58.446Z,49.70
2018-03-16T08:32:57.954Z,51.80
2018-03-16T08:34:04.727Z,49.40
2018-03-16T08:34:57.480Z,46.10
2018-03-16T08:35:58.966Z,49.70
2018-03-16T08:36:57.513Z,50.50
2018-03-16T08:37:57.722Z,44.50
2018-03-16T08:38:57.485Z,45.40
2018-03-16T08:39:57.475Z,48.50
2018-03-16T08:40:57.556Z,44.70
2018-03-16T08:41:58.348Z,47.70
2018-03-16T08:42:57.644Z,50.80
2018-03-16T08:43:57.496Z,50.40
2018-03-16T08:44:57.540Z,49.60
2018-03-16T08:45:57.517Z,46.50
2018-03-16T08:46:57.543Z,49.30
2018-03-16T08:47:57.424Z,50.80
2018-03-16T08:48:58.772Z,54.30
2018-03-16T08:49:57.629Z,53.20
2018-03-16T08:50:57.547Z,51.40
2018-03-16T08:51:57.460Z,54.00
2018-03-16T08:52:57.904Z,52.60
2018-03-16T08:53:57.522Z,49.80
2018-03-16T08:55:00.840Z,46.30
2018-03-16T08:55:57.508Z,47.70
2018-03-16T08:56:57.658Z,51.10
2018-03-16T08:57:57.733Z,49.90
2018-03-16T08:58:58.055Z,48.30
2018-03-16T08:59:57.403Z,43.40
2018-03-16T09:00:57.451Z,51.60
2018-03-16T09:01:57.424Z,49.50
2018-03-16T09:02:57.475Z,51.40
2018-03-16T09:03:57.427Z,49.40
2018-03-16T09:04:57.466Z,49.10
2018-03-16T09:05:57.696Z,49.40
2018-03-16T09:06:59.090Z,51.40
2018-03-16T09:07:57.451Z,44.70
2018-03-16T09:09:04.523Z,49.30
2018-03-16T09:09:57.462Z,48.10
2018-03-16T09:10:57.556Z,53.40
2018-03-16T09:11:58.242Z,51.70
2018-03-16T09:12:57.432Z,41.70
2018-03-16T09:13:57.530Z,49.20
2018-03-16T09:14:57.450Z,50.80
2018-03-16T09:15:57.526Z,50.30
2018-03-16T09:16:58.056Z,48.70
2018-03-16T09:17:57.411Z,50.90
2018-03-16T09:18:57.442Z,50.50
2018-03-16T09:19:57.452Z,51.40
2018-03-16T09:20:57.497Z,48.20
2018-03-16T09:22:04.601Z,50.20
2018-03-16T09:22:57.399Z,52.30
2018-03-16T09:23:57.631Z,52.10
2018-03-16T09:24:57.411Z,51.60
2018-03-16T09:25:57.444Z,55.10
2018-03-16T09:26:58.922Z,54.90
2018-03-16T09:27:57.419Z,42.70
2018-03-16T09:28:57.422Z,47.50
2018-03-16T09:29:58.053Z,48.70
2018-03-16T09:30:57.336Z,45.20
2018-03-16T09:31:57.417Z,38.90
2018-03-16T09:32:57.546Z,43.90
2018-03-16T09:33:57.461Z,40.50
2018-03-16T09:34:57.380Z,44.00
2018-03-16T09:35:57.534Z,41.80
2018-03-16T09:36:58.062Z,43.00
2018-03-16T09:37:57.448Z,46.50
2018-03-16T09:38:58.232Z,45.30
2018-03-16T09:39:57.421Z,45.00
2018-03-16T09:40:57.816Z,47.10
2018-03-16T09:41:59.529Z,44.20
2018-03-16T09:42:57.374Z,46.60
2018-03-16T09:43:57.484Z,43.30
2018-03-16T09:44:57.383Z,43.40
2018-03-16T09:45:57.584Z,42.20
2018-03-16T09:46:57.483Z,44.40
2018-03-16T09:47:57.658Z,44.10
2018-03-16T09:48:57.979Z,41.60
2018-03-16T09:49:57.666Z,42.40
2018-03-16T09:50:57.378Z,44.90
2018-03-16T09:51:57.715Z,42.40
2018-03-16T09:52:58.078Z,45.20
2018-03-16T09:53:57.491Z,44.00
2018-03-16T09:54:57.420Z,41.80
2018-03-16T09:55:57.453Z,44.30
2018-03-16T09:56:57.640Z,42.00
2018-03-16T09:57:57.542Z,43.30
2018-03-16T09:58:57.348Z,40.80
2018-03-16T09:59:57.426Z,40.10
2018-03-16T10:00:57.320Z,39.30
2018-03-16T10:01:57.418Z,39.00
2018-03-16T10:02:57.417Z,39.30
2018-03-16T10:03:57.328Z,40.40
2018-03-16T10:04:57.534Z,32.30
2018-03-16T10:05:57.392Z,36.40
2018-03-16T10:06:57.336Z,36.10
2018-03-16T10:07:57.308Z,37.50
2018-03-16T10:08:57.402Z,37.90
2018-03-16T10:09:57.462Z,36.30
2018-03-16T10:10:57.460Z,34.60
2018-03-16T10:11:57.790Z,34.00
2018-03-16T10:12:57.351Z,34.60
2018-03-16T10:13:57.331Z,29.50
2018-03-16T10:14:57.367Z,26.60
2018-03-16T10:15:57.373Z,31.90
2018-03-16T10:16:57.255Z,31.50
2018-03-16T10:17:57.285Z,33.10
2018-03-16T10:18:57.257Z,33.10
2018-03-16T10:19:57.328Z,25.70
2018-03-16T10:20:57.325Z,30.20
2018-03-16T10:21:58.070Z,31.10
2018-03-16T10:22:58.219Z,30.00
2018-03-16T10:23:57.468Z,30.10
2018-03-16T10:24:57.379Z,29.60
2018-03-16T10:25:57.409Z,31.80
2018-03-16T10:26:57.381Z,27.60
2018-03-16T10:27:57.434Z,29.30
2018-03-16T10:28:57.590Z,33.60
2018-03-16T10:29:57.461Z,32.10
2018-03-16T10:30:57.285Z,29.30
2018-03-16T10:31:57.252Z,30.60
2018-03-16T10:32:57.287Z,29.40
2018-03-16T10:33:58.276Z,31.20
2018-03-16T10:34:57.248Z,30.90
2018-03-16T10:35:57.586Z,30.10
2018-03-16T10:37:00.641Z,29.00
2018-03-16T10:38:03.933Z,30.10
2018-03-16T10:40:31.426Z,29.80
2018-03-16T10:44:30.709Z,29.80
2018-03-16T10:45:23.193Z,26.20
2018-03-16T10:46:23.097Z,26.00
2018-03-16T10:47:23.061Z,27.10
2018-03-16T10:48:23.088Z,30.00
2018-03-16T10:49:23.074Z,30.70
2018-03-16T10:50:23.162Z,29.10
2018-03-16T10:51:23.060Z,29.10
2018-03-16T10:52:23.028Z,29.30
2018-03-16T10:53:23.039Z,27.30
2018-03-16T10:54:23.030Z,27.50
2018-03-16T10:55:23.028Z,27.70
2018-03-16T10:56:23.033Z,29.70
2018-03-16T10:57:23.034Z,31.20
2018-03-16T10:58:23.047Z,29.60
2018-03-16T10:59:23.038Z,29.50
2018-03-16T11:00:23.024Z,28.80
2018-03-16T11:01:23.039Z,29.80
2018-03-16T11:02:23.047Z,29.60
2018-03-16T11:03:23.022Z,30.20
2018-03-16T11:04:23.013Z,27.40
2018-03-16T11:05:23.012Z,26.40
2018-03-16T11:06:23.045Z,28.90
2018-03-16T11:07:23.019Z,29.10
2018-03-16T11:08:23.029Z,29.30
2018-03-16T11:09:23.088Z,30.50
2018-03-16T11:10:23.013Z,28.10
2018-03-16T11:11:23.088Z,27.60
2018-03-16T11:12:23.004Z,25.30
2018-03-16T11:13:23.012Z,26.80
2018-03-16T11:14:22.997Z,28.70
2018-03-16T11:15:22.994Z,28.70
2018-03-16T11:16:22.992Z,28.50
2018-03-16T11:17:23.057Z,28.10
2018-03-16T11:18:22.984Z,27.70
2018-03-16T11:19:22.992Z,31.30
2018-03-16T11:20:23.020Z,28.80
2018-03-16T11:21:22.992Z,26.60
2018-03-16T11:22:23.052Z,23.30
2018-03-16T11:23:23.006Z,25.50
2018-03-16T11:24:22.993Z,25.70
2018-03-16T11:25:22.992Z,24.10
2018-03-16T11:26:22.999Z,25.60
2018-03-16T11:27:23.760Z,26.40
2018-03-16T11:28:22.969Z,28.10
2018-03-16T11:29:22.971Z,27.40
2018-03-16T11:30:23.002Z,27.70
2018-03-16T11:31:22.987Z,24.00
2018-03-16T11:32:22.987Z,27.10
2018-03-16T11:33:22.968Z,22.80
2018-03-16T11:34:22.967Z,24.10
2018-03-16T11:35:22.987Z,25.40
2018-03-16T11:36:22.954Z,26.10
2018-03-16T11:37:22.965Z,25.80
2018-03-16T11:38:22.973Z,24.20
2018-03-16T11:39:22.978Z,22.00
2018-03-16T11:40:23.761Z,25.30
2018-03-16T11:41:22.957Z,24.70
2018-03-16T11:42:22.946Z,25.70
2018-03-16T11:43:22.959Z,27.30
2018-03-16T11:44:22.950Z,24.30
2018-03-16T11:45:22.957Z,24.80
2018-03-16T11:46:22.951Z,24.30
2018-03-16T11:47:22.952Z,24.30
2018-03-16T11:48:22.943Z,23.90
2018-03-16T11:49:23.415Z,25.90
2018-03-16T11:50:23.759Z,25.00
2018-03-16T11:51:22.961Z,24.00
2018-03-16T11:52:22.934Z,26.30
2018-03-16T11:53:22.970Z,23.50
2018-03-16T11:54:22.928Z,24.60
2018-03-16T11:55:23.014Z,26.10
2018-03-16T11:56:22.923Z,25.20
2018-03-16T11:57:22.951Z,26.30
2018-03-16T11:58:22.935Z,26.70
2018-03-16T11:59:22.924Z,26.30
2018-03-16T12:00:22.914Z,25.40
2018-03-16T12:01:22.918Z,25.50
2018-03-16T12:02:22.916Z,24.30
2018-03-16T12:03:23.764Z,24.00
2018-03-16T12:04:22.929Z,25.40
2018-03-16T12:05:22.912Z,24.50
2018-03-16T12:06:22.946Z,26.30
2018-03-16T12:07:22.903Z,25.50
2018-03-16T12:08:22.943Z,23.80
2018-03-16T12:09:22.902Z,22.80
2018-03-16T12:10:22.894Z,23.00
2018-03-16T12:11:22.895Z,23.70
2018-03-16T12:12:22.911Z,24.70
2018-03-16T12:13:22.941Z,22.10
2018-03-16T12:14:22.910Z,22.40
2018-03-16T12:15:22.909Z,23.30
2018-03-16T12:16:22.932Z,24.00
2018-03-16T12:17:22.923Z,24.10
2018-03-16T12:18:22.901Z,22.60
2018-03-16T12:19:22.933Z,22.90
2018-03-16T12:20:22.888Z,21.10
2018-03-16T12:21:22.877Z,23.10
2018-03-16T12:22:22.879Z,24.70
2018-03-16T12:23:22.882Z,24.40
2018-03-16T12:24:22.878Z,23.80
2018-03-16T12:25:22.883Z,22.40
2018-03-16T12:26:22.875Z,21.80
2018-03-16T12:27:22.893Z,22.90
2018-03-16T12:28:22.903Z,22.40
2018-03-16T12:29:22.899Z,24.90
2018-03-16T12:30:23.859Z,24.80
2018-03-16T12:31:22.882Z,20.80
2018-03-16T12:32:22.883Z,23.40
2018-03-16T12:33:22.864Z,21.30
2018-03-16T12:34:22.969Z,23.30
2018-03-16T12:35:22.889Z,24.00
2018-03-16T12:36:22.862Z,23.70
2018-03-16T12:37:22.953Z,25.20
2018-03-16T12:38:22.851Z,24.00
2018-03-16T12:39:22.895Z,23.10
2018-03-16T12:40:22.848Z,23.00
2018-03-16T12:41:22.850Z,26.00
2018-03-16T12:42:22.871Z,24.30
2018-03-16T12:43:22.872Z,22.10
2018-03-16T12:44:22.870Z,22.90
2018-03-16T12:45:22.854Z,23.40
2018-03-16T12:46:22.880Z,24.50
2018-03-16T12:47:22.919Z,24.40
2018-03-16T12:48:22.836Z,24.70
2018-03-16T12:49:22.846Z,20.80
2018-03-16T12:50:22.838Z,19.40
2018-03-16T12:51:22.863Z,23.20
2018-03-16T12:52:22.852Z,24.80
2018-03-16T12:53:23.285Z,22.60
2018-03-16T12:54:22.864Z,25.40
2018-03-16T12:55:22.817Z,26.80
2018-03-16T12:56:22.830Z,24.20
2018-03-16T12:57:22.903Z,21.70
2018-03-16T12:58:22.817Z,24.10